SnowmanRWIS Atmospheric Data: 04/08/2021 Summary  Detailed Graphs  Station List

  Temperature     Wind Precipitation Visibility
Timestamp Air Wet
Bulb
Dew-
point
24-hr
Max
24-hr
Min
Relative
Humidity
Atmospheric
Pressure
Avg
Speed
Avg
Dir
Spot
Speed
Spot
Dir
Max
Speed
Max
Dir
  Rate Situation Start End 1 hr 3 hr 6 hr 12 hr 24 hr   Situation
Date Time °F °F °F °F °F % in Hg mph ° mph ° mph ° Y/N in/hr text Date Time Date Time in in in in in mi text
04/08/2021 12:03 AM 36.50 34.70 32.18 59.36 36.50 83.0 Not Reported 1.79 NE 1.57 NE 2.46 NE No 0.000 No Precipitation 03/19/2021 04:52 AM 03/19/2021 05:19 AM 0.000 0.000 0.000 0.000 0.000 Not Reported Not Reported
04/08/2021 12:08 AM 36.32 34.52 32.00 59.36 36.32 84.0 Not Reported 2.01 NE 1.79 NE 2.46 NE No 0.000 No Precipitation 03/19/2021 04:52 AM 03/19/2021 05:19 AM 0.000 0.000 0.000 0.000 0.000 Not Reported Not Reported
04/08/2021 12:13 AM 36.14 34.52 32.00 59.36 36.14 84.0 Not Reported 2.01 NE 1.79 E 2.24 NE No 0.000 No Precipitation 03/19/2021 04:52 AM 03/19/2021 05:19 AM 0.000 0.000 0.000 0.000 0.000 Not Reported Not Reported
04/08/2021 12:18 AM 35.96 34.16 31.82 59.36 35.78 84.0 Not Reported 2.01 NE 1.79 NE 2.24 NE No 0.000 No Precipitation 03/19/2021 04:52 AM 03/19/2021 05:19 AM 0.000 0.000 0.000 0.000 0.000 Not Reported Not Reported
04/08/2021 12:23 AM 35.78 33.98 31.64 59.36 35.78 84.0 Not Reported 2.24 NE 2.01 NE 2.46 NE No 0.000 No Precipitation 03/19/2021 04:52 AM 03/19/2021 05:19 AM 0.000 0.000 0.000 0.000 0.000 Not Reported Not Reported
04/08/2021 12:28 AM 35.60 33.80 31.28 59.36 35.60 83.0 Not Reported 2.24 NE 1.79 NE 2.46 NE No 0.000 No Precipitation 03/19/2021 04:52 AM 03/19/2021 05:19 AM 0.000 0.000 0.000 0.000 0.000 Not Reported Not Reported
04/08/2021 12:38 AM 35.06 33.26 30.74 59.36 35.06 83.0 Not Reported 2.68 NE 3.13 NE 3.13 NE No 0.000 No Precipitation 03/19/2021 04:52 AM 03/19/2021 05:19 AM 0.000 0.000 0.000 0.000 0.000 Not Reported Not Reported
04/08/2021 12:43 AM 35.06 33.26 30.74 59.36 34.88 83.0 Not Reported 2.68 NE 2.46 NE 3.36 NE No 0.000 No Precipitation 03/19/2021 04:52 AM 03/19/2021 05:19 AM 0.000 0.000 0.000 0.000 0.000 Not Reported Not Reported
04/08/2021 12:53 AM 35.24 33.44 30.56 59.36 34.88 82.0 Not Reported 3.58 NE 4.70 NE 4.70 NE No 0.000 No Precipitation 03/19/2021 04:52 AM 03/19/2021 05:19 AM 0.000 0.000 0.000 0.000 0.000 Not Reported Not Reported
04/08/2021 12:58 AM 35.06 33.08 30.20 59.36 34.88 81.0 Not Reported 3.58 NE 5.37 NE 5.37 NE No 0.000 No Precipitation 03/19/2021 04:52 AM 03/19/2021 05:19 AM 0.000 0.000 0.000 0.000 0.000 Not Reported Not Reported
04/08/2021 01:03 AM 35.60 33.44 30.38 59.36 34.88 80.0 Not Reported 3.58 NE 5.37 NE 5.37 NE No 0.000 No Precipitation 03/19/2021 04:52 AM 03/19/2021 05:19 AM 0.000 0.000 0.000 0.000 0.000 Not Reported Not Reported
04/08/2021 01:08 AM 35.42 33.26 30.02 59.36 34.88 80.0 Not Reported 3.13 NE 3.13 NE 5.82 NE No 0.000 No Precipitation 03/19/2021 04:52 AM 03/19/2021 05:19 AM 0.000 0.000 0.000 0.000 0.000 Not Reported Not Reported
04/08/2021 01:13 AM 35.06 33.08 30.20 59.36 34.88 81.0 Not Reported 4.25 NE 2.91 NE 5.82 NE No 0.000 No Precipitation 03/19/2021 04:52 AM 03/19/2021 05:19 AM 0.000 0.000 0.000 0.000 0.000 Not Reported Not Reported
04/08/2021 01:18 AM 35.06 33.08 30.02 59.36 34.88 81.0 Not Reported 4.47 NE 4.92 NE 5.14 NE No 0.000 No Precipitation 03/19/2021 04:52 AM 03/19/2021 05:19 AM 0.000 0.000 0.000 0.000 0.000 Not Reported Not Reported
04/08/2021 01:23 AM 35.24 32.90 29.48 59.36 34.88 78.0 Not Reported 4.70 NE 4.92 NE 5.14 NE No 0.000 No Precipitation 03/19/2021 04:52 AM 03/19/2021 05:19 AM 0.000 0.000 0.000 0.000 0.000 Not Reported Not Reported
04/08/2021 01:33 AM 35.42 32.72 28.76 59.36 34.88 76.0 Not Reported 3.80 NE 3.80 NE 4.92 NE No 0.000 No Precipitation 03/19/2021 04:52 AM 03/19/2021 05:19 AM 0.000 0.000 0.000 0.000 0.000 Not Reported Not Reported
04/08/2021 01:38 AM 35.60 32.72 28.40 59.36 34.88 74.0 Not Reported 4.03 NE 4.47 NE 4.70 NE No 0.000 No Precipitation 03/19/2021 04:52 AM 03/19/2021 05:19 AM 0.000 0.000 0.000 0.000 0.000 Not Reported Not Reported
04/08/2021 01:43 AM 35.06 32.36 28.40 59.36 34.88 76.0 Not Reported 3.80 NE 2.91 NE 4.70 NE No 0.000 No Precipitation 03/19/2021 04:52 AM 03/19/2021 05:19 AM 0.000 0.000 0.000 0.000 0.000 Not Reported Not Reported
04/08/2021 01:48 AM 34.52 32.00 28.22 59.36 34.52 77.0 Not Reported 2.68 NE 3.58 N 4.47 NE No 0.000 No Precipitation 03/19/2021 04:52 AM 03/19/2021 05:19 AM 0.000 0.000 0.000 0.000 0.000 Not Reported Not Reported
04/08/2021 01:53 AM 34.70 32.00 28.04 59.36 34.34 75.0 Not Reported 3.13 NE 3.80 NE 3.80 NE No 0.000 No Precipitation 03/19/2021 04:52 AM 03/19/2021 05:19 AM 0.000 0.000 0.000 0.000 0.000 Not Reported Not Reported
04/08/2021 01:58 AM 34.88 32.18 28.04 59.36 34.34 75.0 Not Reported 3.13 NE 3.13 NE 4.03 NE No 0.000 No Precipitation 03/19/2021 04:52 AM 03/19/2021 05:19 AM 0.000 0.000 0.000 0.000 0.000 Not Reported Not Reported
04/08/2021 02:03 AM 34.52 32.00 27.50 59.36 34.34 74.0 Not Reported 2.91 NE 3.58 NE 4.03 NE No 0.000 No Precipitation 03/19/2021 04:52 AM 03/19/2021 05:19 AM 0.000 0.000 0.000 0.000 0.000 Not Reported Not Reported
04/08/2021 02:08 AM 34.52 31.82 27.14 59.36 34.34 73.0 Not Reported 2.91 NE 2.91 NE 3.58 NE No 0.000 No Precipitation 03/19/2021 04:52 AM 03/19/2021 05:19 AM 0.000 0.000 0.000 0.000 0.000 Not Reported Not Reported
04/08/2021 02:13 AM 34.34 31.64 26.96 59.36 34.34 73.0 Not Reported 3.13 NE 2.68 NE 3.58 NE No 0.000 No Precipitation 03/19/2021 04:52 AM 03/19/2021 05:19 AM 0.000 0.000 0.000 0.000 0.000 Not Reported Not Reported
04/08/2021 02:18 AM 33.80 31.46 27.14 59.36 33.80 75.0 Not Reported 2.46 NE 2.24 E 3.36 NE No 0.000 No Precipitation 03/19/2021 04:52 AM 03/19/2021 05:19 AM 0.000 0.000 0.000 0.000 0.000 Not Reported Not Reported
04/08/2021 02:23 AM 33.08 30.74 26.96 59.36 33.08 77.0 Not Reported 2.24 NE 2.68 NE 2.91 NE No 0.000 No Precipitation 03/19/2021 04:52 AM 03/19/2021 05:19 AM 0.000 0.000 0.000 0.000 0.000 Not Reported Not Reported
04/08/2021 02:28 AM 33.08 30.74 26.60 59.36 32.90 76.0 Not Reported 2.68 NE 2.68 NE 3.13 NE No 0.000 No Precipitation 03/19/2021 04:52 AM 03/19/2021 05:19 AM 0.000 0.000 0.000 0.000 0.000 Not Reported Not Reported
04/08/2021 02:33 AM 32.72 30.56 26.42 59.36 32.72 77.0 Not Reported 2.68 NE 2.24 NE 3.13 NE No 0.000 No Precipitation 03/19/2021 04:52 AM 03/19/2021 05:19 AM 0.000 0.000 0.000 0.000 0.000 Not Reported Not Reported
04/08/2021 02:38 AM 32.54 30.38 26.42 59.36 32.54 77.0 Not Reported 2.24 NE 2.46 NE 3.36 NE No 0.000 No Precipitation 03/19/2021 04:52 AM 03/19/2021 05:19 AM 0.000 0.000 0.000 0.000 0.000 Not Reported Not Reported
04/08/2021 02:43 AM 32.36 30.20 26.24 59.36 32.18 77.0 Not Reported 2.68 NE 3.58 NE 3.58 NE No 0.000 No Precipitation 03/19/2021 04:52 AM 03/19/2021 05:19 AM 0.000 0.000 0.000 0.000 0.000 Not Reported Not Reported
04/08/2021 02:48 AM 32.18 30.02 26.06 59.36 32.18 77.0 Not Reported 3.58 NE 3.36 NE 3.80 NE No 0.000 No Precipitation 03/19/2021 04:52 AM 03/19/2021 05:19 AM 0.000 0.000 0.000 0.000 0.000 Not Reported Not Reported
04/08/2021 02:53 AM 32.18 30.02 26.06 59.36 32.00 77.0 Not Reported 2.91 NE 3.36 NE 3.80 NE No 0.000 No Precipitation 03/19/2021 04:52 AM 03/19/2021 05:19 AM 0.000 0.000 0.000 0.000 0.000 Not Reported Not Reported
04/08/2021 02:58 AM 32.18 30.02 25.88 59.36 32.00 76.0 Not Reported 3.36 NE 2.91 NE 3.58 NE No 0.000 No Precipitation 03/19/2021 04:52 AM 03/19/2021 05:19 AM 0.000 0.000 0.000 0.000 0.000 Not Reported Not Reported
04/08/2021 03:03 AM 32.00 29.84 25.88 59.36 32.00 77.0 Not Reported 3.58 NE 3.58 NE 4.25 NE No 0.000 No Precipitation 03/19/2021 04:52 AM 03/19/2021 05:19 AM 0.000 0.000 0.000 0.000 0.000 Not Reported Not Reported
04/08/2021 03:08 AM 32.00 29.66 25.52 59.36 31.82 76.0 Not Reported 3.58 NE 2.91 E 4.70 E No 0.000 No Precipitation 03/19/2021 04:52 AM 03/19/2021 05:19 AM 0.000 0.000 0.000 0.000 0.000 Not Reported Not Reported
04/08/2021 03:13 AM 31.82 29.66 25.70 59.36 31.82 77.0 Not Reported 3.80 NE 4.25 NE 4.70 NE No 0.000 No Precipitation 03/19/2021 04:52 AM 03/19/2021 05:19 AM 0.000 0.000 0.000 0.000 0.000 Not Reported Not Reported
04/08/2021 03:18 AM 32.18 29.84 25.52 59.36 31.82 75.0 Not Reported 4.03 NE 3.36 N 5.37 NE No 0.000 No Precipitation 03/19/2021 04:52 AM 03/19/2021 05:19 AM 0.000 0.000 0.000 0.000 0.000 Not Reported Not Reported
04/08/2021 03:23 AM 32.54 29.84 24.98 59.36 31.82 72.0 Not Reported 4.25 NE 4.03 NE 5.37 NE No 0.000 No Precipitation 03/19/2021 04:52 AM 03/19/2021 05:19 AM 0.000 0.000 0.000 0.000 0.000 Not Reported Not Reported
04/08/2021 03:28 AM 32.54 30.02 25.34 59.36 31.82 74.0 Not Reported 3.80 NE 4.03 NE 4.70 NE No 0.000 No Precipitation 03/19/2021 04:52 AM 03/19/2021 05:19 AM 0.000 0.000 0.000 0.000 0.000 Not Reported Not Reported
04/08/2021 03:33 AM 32.18 29.66 24.98 59.36 31.82 74.0 Not Reported 4.03 NE 4.70 NE 4.70 NE No 0.000 No Precipitation 03/19/2021 04:52 AM 03/19/2021 05:19 AM 0.000 0.000 0.000 0.000 0.000 Not Reported Not Reported
04/08/2021 03:38 AM 31.82 29.30 24.98 59.36 31.82 75.0 Not Reported 4.47 NE 4.03 NE 5.14 NE No 0.000 No Precipitation 03/19/2021 04:52 AM 03/19/2021 05:19 AM 0.000 0.000 0.000 0.000 0.000 Not Reported Not Reported
04/08/2021 03:43 AM 32.00 29.30 23.90 59.36 31.64 71.0 Not Reported 4.47 NE 4.25 NE 5.14 NE No 0.000 No Precipitation 03/19/2021 04:52 AM 03/19/2021 05:19 AM 0.000 0.000 0.000 0.000 0.000 Not Reported Not Reported
04/08/2021 03:48 AM 32.36 29.30 23.54 59.36 31.64 69.0 Not Reported 3.80 NE 3.80 NE 4.92 N No 0.000 No Precipitation 03/19/2021 04:52 AM 03/19/2021 05:19 AM 0.000 0.000 0.000 0.000 0.000 Not Reported Not Reported
04/08/2021 03:53 AM 32.54 29.48 23.54 59.36 31.64 68.0 Not Reported 4.25 NE 3.58 NE 4.70 NE No 0.000 No Precipitation 03/19/2021 04:52 AM 03/19/2021 05:19 AM 0.000 0.000 0.000 0.000 0.000 Not Reported Not Reported
04/08/2021 03:58 AM 33.44 29.66 22.64 59.36 31.64 64.0 Not Reported 4.25 NE 4.70 NE 4.92 NE No 0.000 No Precipitation 03/19/2021 04:52 AM 03/19/2021 05:19 AM 0.000 0.000 0.000 0.000 0.000 Not Reported Not Reported
04/08/2021 04:03 AM 35.60 30.56 20.66 59.36 31.64 53.0 Not Reported 5.59 NE 5.59 N 6.49 NE No 0.000 No Precipitation 03/19/2021 04:52 AM 03/19/2021 05:19 AM 0.000 0.000 0.000 0.000 0.000 Not Reported Not Reported
04/08/2021 04:08 AM 36.50 31.10 20.66 59.36 31.64 51.0 Not Reported 5.82 N 4.92 N 6.49 NE No 0.000 No Precipitation 03/19/2021 04:52 AM 03/19/2021 05:19 AM 0.000 0.000 0.000 0.000 0.000 Not Reported Not Reported
04/08/2021 04:18 AM 36.14 31.10 21.38 59.36 31.64 54.0 Not Reported 5.59 N 6.71 N 6.71 N No 0.000 No Precipitation 03/19/2021 04:52 AM 03/19/2021 05:19 AM 0.000 0.000 0.000 0.000 0.000 Not Reported Not Reported
04/08/2021 04:23 AM 36.14 31.10 21.56 59.36 31.64 54.0 Not Reported 4.70 N 4.47 N 6.71 N No 0.000 No Precipitation 03/19/2021 04:52 AM 03/19/2021 05:19 AM 0.000 0.000 0.000 0.000 0.000 Not Reported Not Reported
04/08/2021 04:28 AM 35.60 30.92 21.74 59.36 31.64 56.0 Not Reported 5.37 N 4.03 N 6.26 N No 0.000 No Precipitation 03/19/2021 04:52 AM 03/19/2021 05:19 AM 0.000 0.000 0.000 0.000 0.000 Not Reported Not Reported
04/08/2021 04:33 AM 35.06 30.56 22.10 59.36 31.64 58.0 Not Reported 4.70 NE 3.80 NE 7.16 N No 0.000 No Precipitation 03/19/2021 04:52 AM 03/19/2021 05:19 AM 0.000 0.000 0.000 0.000 0.000 Not Reported Not Reported
04/08/2021 04:38 AM 35.06 30.74 22.82 59.36 31.64 60.0 Not Reported 4.70 NE 4.92 NE 7.16 N No 0.000 No Precipitation 03/19/2021 04:52 AM 03/19/2021 05:19 AM 0.000 0.000 0.000 0.000 0.000 Not Reported Not Reported
04/08/2021 04:43 AM 34.34 30.20 21.92 59.36 31.64 59.0 Not Reported 4.25 NE 4.92 NE 6.49 NE No 0.000 No Precipitation 03/19/2021 04:52 AM 03/19/2021 05:19 AM 0.000 0.000 0.000 0.000 0.000 Not Reported Not Reported
04/08/2021 04:48 AM 34.34 30.38 22.28 59.36 31.64 59.0 Not Reported 4.92 NE 4.70 N 5.59 N No 0.000 No Precipitation 03/19/2021 04:52 AM 03/19/2021 05:19 AM 0.000 0.000 0.000 0.000 0.000 Not Reported Not Reported
04/08/2021 04:53 AM 35.06 30.56 21.56 59.36 31.64 57.0 Not Reported 4.92 NE 5.37 NE 7.61 NE No 0.000 No Precipitation 03/19/2021 04:52 AM 03/19/2021 05:19 AM 0.000 0.000 0.000 0.000 0.000 Not Reported Not Reported
04/08/2021 04:58 AM 35.06 30.56 21.56 59.36 31.64 56.0 Not Reported 6.49 NE 5.37 NE 8.72 NE No 0.000 No Precipitation 03/19/2021 04:52 AM 03/19/2021 05:19 AM 0.000 0.000 0.000 0.000 0.000 Not Reported Not Reported
04/08/2021 05:03 AM 34.88 30.56 21.92 59.36 31.64 58.0 Not Reported 5.59 N 4.03 NE 8.72 NE No 0.000 No Precipitation 03/19/2021 04:52 AM 03/19/2021 05:19 AM 0.000 0.000 0.000 0.000 0.000 Not Reported Not Reported
04/08/2021 05:08 AM 34.52 30.38 22.10 59.36 31.64 59.0 Not Reported 4.47 NE 5.59 NE 7.16 NE No 0.000 No Precipitation 03/19/2021 04:52 AM 03/19/2021 05:19 AM 0.000 0.000 0.000 0.000 0.000 Not Reported Not Reported
04/08/2021 05:13 AM 34.70 30.20 21.38 59.36 31.64 57.0 Not Reported 5.37 NE 8.28 NE 8.28 NE No 0.000 No Precipitation 03/19/2021 04:52 AM 03/19/2021 05:19 AM 0.000 0.000 0.000 0.000 0.000 Not Reported Not Reported
04/08/2021 05:18 AM 35.06 30.38 21.38 59.36 31.64 56.0 Not Reported 6.49 NE 7.61 NE 9.40 NE No 0.000 No Precipitation 03/19/2021 04:52 AM 03/19/2021 05:19 AM 0.000 0.000 0.000 0.000 0.000 Not Reported Not Reported
04/08/2021 05:23 AM 35.06 30.56 21.92 59.36 31.64 57.0 Not Reported 5.59 N 5.37 N 9.40 NE No 0.000 No Precipitation 03/19/2021 04:52 AM 03/19/2021 05:19 AM 0.000 0.000 0.000 0.000 0.000 Not Reported Not Reported
04/08/2021 05:28 AM 34.70 30.20 21.56 59.36 31.64 58.0 Not Reported 5.59 NE 5.37 NE 8.28 NE No 0.000 No Precipitation 03/19/2021 04:52 AM 03/19/2021 05:19 AM 0.000 0.000 0.000 0.000 0.000 Not Reported Not Reported
04/08/2021 05:33 AM 34.70 30.20 21.74 59.36 31.64 58.0 Not Reported 5.59 NE 6.93 NE 6.93 NE No 0.000 No Precipitation 03/19/2021 04:52 AM 03/19/2021 05:19 AM 0.000 0.000 0.000 0.000 0.000 Not Reported Not Reported
04/08/2021 05:38 AM 34.52 30.38 22.28 59.36 31.64 60.0 Not Reported 6.71 NE 4.70 NE 9.17 NE No 0.000 No Precipitation 03/19/2021 04:52 AM 03/19/2021 05:19 AM 0.000 0.000 0.000 0.000 0.000 Not Reported Not Reported
04/08/2021 05:43 AM 34.34 30.38 22.64 59.36 31.64 61.0 Not Reported 6.49 NE 5.14 E 9.17 NE No 0.000 No Precipitation 03/19/2021 04:52 AM 03/19/2021 05:19 AM 0.000 0.000 0.000 0.000 0.000 Not Reported Not Reported
04/08/2021 05:48 AM 34.52 30.56 23.00 59.36 31.64 61.0 Not Reported 6.71 N 5.82 N 8.72 N No 0.000 No Precipitation 03/19/2021 04:52 AM 03/19/2021 05:19 AM 0.000 0.000 0.000 0.000 0.000 Not Reported Not Reported
04/08/2021 05:53 AM 34.16 30.38 23.18 59.36 31.64 63.0 Not Reported 7.38 NE 6.71 NE 9.40 NE No 0.000 No Precipitation 03/19/2021 04:52 AM 03/19/2021 05:19 AM 0.000 0.000 0.000 0.000 0.000 Not Reported Not Reported
04/08/2021 05:58 AM 34.16 30.38 23.36 59.36 31.64 63.0 Not Reported 7.38 NE 6.71 N 9.40 NE No 0.000 No Precipitation 03/19/2021 04:52 AM 03/19/2021 05:19 AM 0.000 0.000 0.000 0.000 0.000 Not Reported Not Reported
04/08/2021 06:03 AM 34.16 30.38 23.36 59.36 31.64 63.0 Not Reported 6.04 NE 6.04 NE 9.17 NE No 0.000 No Precipitation 03/19/2021 04:52 AM 03/19/2021 05:19 AM 0.000 0.000 0.000 0.000 0.000 Not Reported Not Reported
04/08/2021 06:08 AM 33.98 30.38 23.54 59.36 31.64 64.0 Not Reported 6.49 NE 4.70 N 8.72 NE No 0.000 No Precipitation 03/19/2021 04:52 AM 03/19/2021 05:19 AM 0.000 0.000 0.000 0.000 0.000 Not Reported Not Reported
04/08/2021 06:13 AM 33.62 30.20 23.72 59.36 31.64 66.0 Not Reported 5.82 NE 4.03 N 8.05 N No 0.000 No Precipitation 03/19/2021 04:52 AM 03/19/2021 05:19 AM 0.000 0.000 0.000 0.000 0.000 Not Reported Not Reported
04/08/2021 06:18 AM 33.62 30.20 24.08 59.36 31.64 67.0 Not Reported 5.59 NE 4.92 NE 7.61 NE No 0.000 No Precipitation 03/19/2021 04:52 AM 03/19/2021 05:19 AM 0.000 0.000 0.000 0.000 0.000 Not Reported Not Reported
04/08/2021 06:23 AM 33.26 30.20 24.08 59.36 31.64 67.0 Not Reported 5.59 NE 5.82 NE 6.71 NE No 0.000 No Precipitation 03/19/2021 04:52 AM 03/19/2021 05:19 AM 0.000 0.000 0.000 0.000 0.000 Not Reported Not Reported
04/08/2021 06:28 AM 33.08 30.02 24.08 59.36 31.64 68.0 Not Reported 4.92 N 5.14 NE 6.49 NE No 0.000 No Precipitation 03/19/2021 04:52 AM 03/19/2021 05:19 AM 0.000 0.000 0.000 0.000 0.000 Not Reported Not Reported
04/08/2021 06:33 AM 33.44 29.84 23.18 59.36 31.64 65.0 Not Reported 5.37 NE 4.47 NE 6.49 N No 0.000 No Precipitation 03/19/2021 04:52 AM 03/19/2021 05:19 AM 0.000 0.000 0.000 0.000 0.000 Not Reported Not Reported
04/08/2021 06:38 AM 33.80 29.84 22.46 59.36 31.64 62.0 Not Reported 4.03 NE 4.47 N 6.49 N No 0.000 No Precipitation 03/19/2021 04:52 AM 03/19/2021 05:19 AM 0.000 0.000 0.000 0.000 0.000 Not Reported Not Reported
04/08/2021 06:43 AM 33.62 29.84 22.10 59.36 31.64 61.0 Not Reported 4.25 NE 3.58 N 5.14 N No 0.000 No Precipitation 03/19/2021 04:52 AM 03/19/2021 05:19 AM 0.000 0.000 0.000 0.000 0.000 Not Reported Not Reported
04/08/2021 06:48 AM 33.44 29.84 22.46 59.36 31.64 63.0 Not Reported 4.25 N 4.92 NE 4.92 NE No 0.000 No Precipitation 03/19/2021 04:52 AM 03/19/2021 05:19 AM 0.000 0.000 0.000 0.000 0.000 Not Reported Not Reported
04/08/2021 06:53 AM 33.08 29.48 22.64 59.36 31.64 64.0 Not Reported 2.91 NE 4.03 NE 4.92 NE No 0.000 No Precipitation 03/19/2021 04:52 AM 03/19/2021 05:19 AM 0.000 0.000 0.000 0.000 0.000 Not Reported Not Reported
04/08/2021 06:58 AM 33.44 29.66 22.46 59.36 31.64 63.0 Not Reported 4.25 NE 3.80 NE 4.92 N No 0.000 No Precipitation 03/19/2021 04:52 AM 03/19/2021 05:19 AM 0.000 0.000 0.000 0.000 0.000 Not Reported Not Reported
04/08/2021 07:03 AM 34.34 29.30 18.86 59.36 31.64 52.0 Not Reported 4.03 N 3.80 NE 5.59 N No 0.000 No Precipitation 03/19/2021 04:52 AM 03/19/2021 05:19 AM 0.000 0.000 0.000 0.000 0.000 Not Reported Not Reported
04/08/2021 07:08 AM 34.34 29.30 19.22 59.36 31.64 53.0 Not Reported 3.80 NE 3.58 NE 5.59 N No 0.000 No Precipitation 03/19/2021 04:52 AM 03/19/2021 05:19 AM 0.000 0.000 0.000 0.000 0.000 Not Reported Not Reported
04/08/2021 07:13 AM 34.88 28.40 13.10 59.36 31.64 39.0 Not Reported 3.13 N 4.03 NE 5.14 N No 0.000 No Precipitation 03/19/2021 04:52 AM 03/19/2021 05:19 AM 0.000 0.000 0.000 0.000 0.000 Not Reported Not Reported
04/08/2021 07:18 AM 35.24 29.12 16.16 59.36 31.64 44.0 Not Reported 1.12 N 1.79 N 5.14 N No 0.000 No Precipitation 03/19/2021 04:52 AM 03/19/2021 05:19 AM 0.000 0.000 0.000 0.000 0.000 Not Reported Not Reported
04/08/2021 07:23 AM 34.16 30.20 22.64 59.36 31.64 62.0 Not Reported 1.57 NE 2.24 N 5.14 N No 0.000 No Precipitation 03/19/2021 04:52 AM 03/19/2021 05:19 AM 0.000 0.000 0.000 0.000 0.000 Not Reported Not Reported
04/08/2021 07:28 AM 32.90 29.30 22.10 59.36 31.64 63.0 Not Reported 2.24 N 2.91 NW 2.91 NE No 0.000 No Precipitation 03/19/2021 04:52 AM 03/19/2021 05:19 AM 0.000 0.000 0.000 0.000 0.000 Not Reported Not Reported
04/08/2021 07:33 AM 33.98 27.50 11.84 59.36 31.64 39.0 Not Reported 0.00 NW 0.45 SW 2.91 NW No 0.000 No Precipitation 03/19/2021 04:52 AM 03/19/2021 05:19 AM 0.000 0.000 0.000 0.000 0.000 Not Reported Not Reported
04/08/2021 07:38 AM 34.52 30.74 23.36 59.36 31.64 62.0 Not Reported 0.67 NE 1.79 N 2.68 NW No 0.000 No Precipitation 03/19/2021 04:52 AM 03/19/2021 05:19 AM 0.000 0.000 0.000 0.000 0.000 Not Reported Not Reported
04/08/2021 07:43 AM 34.16 27.86 13.46 59.36 31.64 41.0 Not Reported 0.67 NE 0.45 E 2.46 N No 0.000 No Precipitation 03/19/2021 04:52 AM 03/19/2021 05:19 AM 0.000 0.000 0.000 0.000 0.000 Not Reported Not Reported
04/08/2021 07:48 AM 36.14 30.56 19.58 59.36 31.64 50.0 Not Reported 1.12 SW 1.57 NW 2.46 N No 0.000 No Precipitation 03/19/2021 04:52 AM 03/19/2021 05:19 AM 0.000 0.000 0.000 0.000 0.000 Not Reported Not Reported
04/08/2021 07:53 AM 37.94 29.84 11.30 59.36 31.64 32.0 Not Reported 1.79 E 1.34 SW 3.13 NE No 0.000 No Precipitation 03/19/2021 04:52 AM 03/19/2021 05:19 AM 0.000 0.000 0.000 0.000 0.000 Not Reported Not Reported
04/08/2021 07:58 AM 39.92 32.00 16.34 59.36 31.64 37.0 Not Reported 3.36 S 1.12 SW 5.82 S No 0.000 No Precipitation 03/19/2021 04:52 AM 03/19/2021 05:19 AM 0.000 0.000 0.000 0.000 0.000 Not Reported Not Reported
04/08/2021 08:03 AM 40.10 31.28 11.66 59.36 31.64 30.0 Not Reported 1.57 SE 2.24 E 5.82 S No 0.000 No Precipitation 03/19/2021 04:52 AM 03/19/2021 05:19 AM 0.000 0.000 0.000 0.000 0.000 Not Reported Not Reported
04/08/2021 08:08 AM 40.28 31.64 12.92 59.36 31.64 31.0 Not Reported 1.34 NE 2.46 NE 2.91 E No 0.000 No Precipitation 03/19/2021 04:52 AM 03/19/2021 05:19 AM 0.000 0.000 0.000 0.000 0.000 Not Reported Not Reported
04/08/2021 08:13 AM 38.12 32.54 22.82 59.36 31.64 53.0 Not Reported 2.24 NE 3.13 N 3.13 N No 0.000 No Precipitation 03/19/2021 04:52 AM 03/19/2021 05:19 AM 0.000 0.000 0.000 0.000 0.000 Not Reported Not Reported
04/08/2021 08:18 AM 36.86 32.00 23.00 59.36 31.64 56.0 Not Reported 2.68 N 1.34 N 3.13 N No 0.000 No Precipitation 03/19/2021 04:52 AM 03/19/2021 05:19 AM 0.000 0.000 0.000 0.000 0.000 Not Reported Not Reported
04/08/2021 08:23 AM 36.50 31.82 22.82 59.36 31.64 56.0 Not Reported 3.36 N 2.01 N 3.80 N No 0.000 No Precipitation 03/19/2021 04:52 AM 03/19/2021 05:19 AM 0.000 0.000 0.000 0.000 0.000 Not Reported Not Reported
04/08/2021 08:28 AM 37.04 31.82 21.92 59.36 31.64 53.0 Not Reported 2.46 N 1.79 NE 4.70 N No 0.000 No Precipitation 03/19/2021 04:52 AM 03/19/2021 05:19 AM 0.000 0.000 0.000 0.000 0.000 Not Reported Not Reported
04/08/2021 08:33 AM 37.94 32.90 24.62 59.36 31.64 57.0 Not Reported 3.13 N 3.36 N 4.70 N No 0.000 No Precipitation 03/19/2021 04:52 AM 03/19/2021 05:19 AM 0.000 0.000 0.000 0.000 0.000 Not Reported Not Reported
04/08/2021 08:38 AM 38.48 32.36 21.38 59.36 31.64 49.0 Not Reported 3.36 NE 3.58 N 4.70 E No 0.000 No Precipitation 03/19/2021 04:52 AM 03/19/2021 05:19 AM 0.000 0.000 0.000 0.000 0.000 Not Reported Not Reported
04/08/2021 08:43 AM 40.28 33.62 22.10 59.36 31.64 47.0 Not Reported 1.57 E 1.57 SW 4.70 E No 0.000 No Precipitation 03/19/2021 04:52 AM 03/19/2021 05:19 AM 0.000 0.000 0.000 0.000 0.000 Not Reported Not Reported
04/08/2021 08:53 AM 41.72 34.70 23.54 59.36 31.64 47.0 Not Reported 3.36 SW 1.34 W 4.70 SW No 0.000 No Precipitation 03/19/2021 04:52 AM 03/19/2021 05:19 AM 0.000 0.000 0.000 0.000 0.000 Not Reported Not Reported
04/08/2021 08:58 AM 41.90 34.88 23.36 59.36 31.64 46.0 Not Reported 0.89 W 0.89 W 4.70 SW No 0.000 No Precipitation 03/19/2021 04:52 AM 03/19/2021 05:19 AM 0.000 0.000 0.000 0.000 0.000 Not Reported Not Reported
04/08/2021 09:03 AM 41.90 34.88 23.54 59.36 31.64 47.0 Not Reported 0.89 N 3.13 N 3.13 N No 0.000 No Precipitation 03/19/2021 04:52 AM 03/19/2021 05:19 AM 0.000 0.000 0.000 0.000 0.000 Not Reported Not Reported
04/08/2021 09:08 AM 41.54 34.88 23.54 59.36 31.64 48.0 Not Reported 0.45 SW 0.67 NE 3.13 N No 0.000 No Precipitation 03/19/2021 04:52 AM 03/19/2021 05:19 AM 0.000 0.000 0.000 0.000 0.000 Not Reported Not Reported
04/08/2021 09:13 AM 41.72 35.06 24.08 59.36 31.64 48.0 Not Reported 0.45 N 1.79 SE 2.91 W No 0.000 No Precipitation 03/19/2021 04:52 AM 03/19/2021 05:19 AM 0.000 0.000 0.000 0.000 0.000 Not Reported Not Reported
04/08/2021 09:18 AM 42.44 35.24 23.54 59.36 31.64 46.0 Not Reported 1.12 NE 1.79 NE 2.91 W No 0.000 No Precipitation 03/19/2021 04:52 AM 03/19/2021 05:19 AM 0.000 0.000 0.000 0.000 0.000 Not Reported Not Reported
04/08/2021 09:23 AM 43.16 35.60 23.72 59.36 31.64 45.0 Not Reported 0.89 N 0.22 NW 1.79 NE No 0.000 No Precipitation 03/19/2021 04:52 AM 03/19/2021 05:19 AM 0.000 0.000 0.000 0.000 0.000 Not Reported Not Reported
04/08/2021 09:28 AM 42.98 36.68 27.68 59.36 31.64 53.0 Not Reported 2.24 NE 1.34 NW 3.13 NW No 0.000 No Precipitation 03/19/2021 04:52 AM 03/19/2021 05:19 AM 0.000 0.000 0.000 0.000 0.000 Not Reported Not Reported
04/08/2021 09:33 AM 43.52 35.42 22.10 59.36 31.64 41.0 Not Reported 2.68 NE 5.82 NE 8.72 E No 0.000 No Precipitation 03/19/2021 04:52 AM 03/19/2021 05:19 AM 0.000 0.000 0.000 0.000 0.000 Not Reported Not Reported
04/08/2021 09:38 AM 43.88 34.34 16.70 59.36 31.64 32.0 Not Reported 3.80 N 5.59 E 8.72 E No 0.000 No Precipitation 03/19/2021 04:52 AM 03/19/2021 05:19 AM 0.000 0.000 0.000 0.000 0.000 Not Reported Not Reported
04/08/2021 09:43 AM 43.70 34.88 19.04 59.36 31.64 36.0 Not Reported 5.59 NE 6.71 NE 8.72 N No 0.000 No Precipitation 03/19/2021 04:52 AM 03/19/2021 05:19 AM 0.000 0.000 0.000 0.000 0.000 Not Reported Not Reported
04/08/2021 09:48 AM 44.42 35.96 22.28 59.36 31.64 40.0 Not Reported 3.58 NE 4.92 NE 8.72 N No 0.000 No Precipitation 03/19/2021 04:52 AM 03/19/2021 05:19 AM 0.000 0.000 0.000 0.000 0.000 Not Reported Not Reported
04/08/2021 09:53 AM 45.50 37.40 24.80 59.36 31.64 43.0 Not Reported 3.13 NE 0.67 SE 7.16 NE No 0.000 No Precipitation 03/19/2021 04:52 AM 03/19/2021 05:19 AM 0.000 0.000 0.000 0.000 0.000 Not Reported Not Reported
04/08/2021 09:58 AM 46.22 37.94 25.52 59.36 31.64 43.0 Not Reported 5.59 E 5.37 NE 7.38 E No 0.000 No Precipitation 03/19/2021 04:52 AM 03/19/2021 05:19 AM 0.000 0.000 0.000 0.000 0.000 Not Reported Not Reported
04/08/2021 10:03 AM 45.86 37.76 26.24 59.36 31.64 44.0 Not Reported 6.93 E 4.92 SE 10.51 E No 0.000 No Precipitation 03/19/2021 04:52 AM 03/19/2021 05:19 AM 0.000 0.000 0.000 0.000 0.000 Not Reported Not Reported
04/08/2021 10:08 AM 45.68 37.76 26.06 59.36 31.64 45.0 Not Reported 6.93 NE 7.61 NE 10.51 E No 0.000 No Precipitation 03/19/2021 04:52 AM 03/19/2021 05:19 AM 0.000 0.000 0.000 0.000 0.000 Not Reported Not Reported
04/08/2021 10:13 AM 45.50 37.58 25.52 59.36 31.64 44.0 Not Reported 12.08 NE 8.72 E 12.53 NE No 0.000 No Precipitation 03/19/2021 04:52 AM 03/19/2021 05:19 AM 0.000 0.000 0.000 0.000 0.000 Not Reported Not Reported
04/08/2021 10:18 AM 46.22 38.30 26.60 59.36 31.64 45.0 Not Reported 3.58 NE 5.14 NE 12.53 NE No 0.000 No Precipitation 03/19/2021 04:52 AM 03/19/2021 05:19 AM 0.000 0.000 0.000 0.000 0.000 Not Reported Not Reported
04/08/2021 10:23 AM 46.22 38.12 26.42 59.36 31.64 45.0 Not Reported 6.93 NE 5.59 NE 9.62 NE No 0.000 No Precipitation 03/19/2021 04:52 AM 03/19/2021 05:19 AM 0.000 0.000 0.000 0.000 0.000 Not Reported Not Reported
04/08/2021 10:28 AM 45.68 37.94 26.60 59.36 31.64 46.0 Not Reported 8.28 NE 6.93 E 9.84 E No 0.000 No Precipitation 03/19/2021 04:52 AM 03/19/2021 05:19 AM 0.000 0.000 0.000 0.000 0.000 Not Reported Not Reported
04/08/2021 10:33 AM 46.04 38.66 26.78 59.36 31.64 46.0 Not Reported 4.92 NE 5.59 N 9.84 E No 0.000 No Precipitation 03/19/2021 04:52 AM 03/19/2021 05:19 AM 0.000 0.000 0.000 0.000 0.000 Not Reported Not Reported
04/08/2021 10:38 AM 46.94 38.84 26.96 59.36 31.64 45.0 Not Reported 6.26 NE 10.74 N 10.74 N No 0.000 No Precipitation 03/19/2021 04:52 AM 03/19/2021 05:19 AM 0.000 0.000 0.000 0.000 0.000 Not Reported Not Reported
04/08/2021 10:43 AM 46.58 38.48 26.42 59.36 31.64 44.0 Not Reported 6.49 NE 5.14 NE 13.20 NE No 0.000 No Precipitation 03/19/2021 04:52 AM 03/19/2021 05:19 AM 0.000 0.000 0.000 0.000 0.000 Not Reported Not Reported
04/08/2021 10:48 AM 46.76 38.48 26.60 59.36 31.64 44.0 Not Reported 7.83 NE 4.92 N 15.21 NE No 0.000 No Precipitation 03/19/2021 04:52 AM 03/19/2021 05:19 AM 0.000 0.000 0.000 0.000 0.000 Not Reported Not Reported
04/08/2021 10:53 AM 46.58 38.30 26.24 59.36 31.64 44.0 Not Reported 10.74 NE 11.18 NE 15.21 NE No 0.000 No Precipitation 03/19/2021 04:52 AM 03/19/2021 05:19 AM 0.000 0.000 0.000 0.000 0.000 Not Reported Not Reported
04/08/2021 10:58 AM 47.66 38.84 26.24 59.36 31.64 42.0 Not Reported 3.36 NE 4.92 E 13.42 NE No 0.000 No Precipitation 03/19/2021 04:52 AM 03/19/2021 05:19 AM 0.000 0.000 0.000 0.000 0.000 Not Reported Not Reported
04/08/2021 11:03 AM 46.76 38.12 24.98 59.36 31.64 41.0 Not Reported 9.17 NE 6.71 NE 12.97 NE No 0.000 No Precipitation 03/19/2021 04:52 AM 03/19/2021 05:19 AM 0.000 0.000 0.000 0.000 0.000 Not Reported Not Reported
04/08/2021 11:08 AM 48.38 39.20 26.06 59.36 31.64 41.0 Not Reported 4.70 NE 4.92 NW 12.75 NE No 0.000 No Precipitation 03/19/2021 04:52 AM 03/19/2021 05:19 AM 0.000 0.000 0.000 0.000 0.000 Not Reported Not Reported
04/08/2021 11:13 AM 48.56 39.20 25.16 59.36 31.64 39.0 Not Reported 4.47 E 0.89 SE 8.05 NE No 0.000 No Precipitation 03/19/2021 04:52 AM 03/19/2021 05:19 AM 0.000 0.000 0.000 0.000 0.000 Not Reported Not Reported
04/08/2021 11:18 AM 48.02 38.48 23.90 59.36 31.64 38.0 Not Reported 9.17 NE 7.83 NE 11.63 E No 0.000 No Precipitation 03/19/2021 04:52 AM 03/19/2021 05:19 AM 0.000 0.000 0.000 0.000 0.000 Not Reported Not Reported
04/08/2021 11:23 AM 46.76 37.76 23.72 59.36 31.64 39.0 Not Reported 8.95 SE 6.49 E 14.54 NE No 0.000 No Precipitation 03/19/2021 04:52 AM 03/19/2021 05:19 AM 0.000 0.000 0.000 0.000 0.000 Not Reported Not Reported
04/08/2021 11:28 AM 48.20 38.66 24.44 59.36 31.64 38.0 Not Reported 6.93 NE 4.03 N 14.54 NE No 0.000 No Precipitation 03/19/2021 04:52 AM 03/19/2021 05:19 AM 0.000 0.000 0.000 0.000 0.000 Not Reported Not Reported
04/08/2021 11:33 AM 48.56 38.48 23.18 59.36 31.64 36.0 Not Reported 6.04 NE 3.80 NE 11.18 NE No 0.000 No Precipitation 03/19/2021 04:52 AM 03/19/2021 05:19 AM 0.000 0.000 0.000 0.000 0.000 Not Reported Not Reported
04/08/2021 11:38 AM 48.92 38.66 22.46 59.36 31.64 35.0 Not Reported 5.37 SE 7.16 NE 12.08 NE No 0.000 No Precipitation 03/19/2021 04:52 AM 03/19/2021 05:19 AM 0.000 0.000 0.000 0.000 0.000 Not Reported Not Reported
04/08/2021 11:43 AM 49.10 38.48 21.56 59.36 31.64 33.0 Not Reported 7.16 E 8.95 E 12.08 NE No 0.000 No Precipitation 03/19/2021 04:52 AM 03/19/2021 05:19 AM 0.000 0.000 0.000 0.000 0.000 Not Reported Not Reported
04/08/2021 11:48 AM 49.46 39.02 23.00 59.36 31.64 34.0 Not Reported 8.95 NE 2.91 E 11.63 NE No 0.000 No Precipitation 03/19/2021 04:52 AM 03/19/2021 05:19 AM 0.000 0.000 0.000 0.000 0.000 Not Reported Not Reported
04/08/2021 11:53 AM 50.54 39.74 23.54 59.36 31.64 34.0 Not Reported 4.47 NE 7.38 NE 10.07 E No 0.000 No Precipitation 03/19/2021 04:52 AM 03/19/2021 05:19 AM 0.000 0.000 0.000 0.000 0.000 Not Reported Not Reported
04/08/2021 11:58 AM 50.36 39.74 23.90 59.36 31.64 35.0 Not Reported 7.61 NE 4.92 NE 8.50 NE No 0.000 No Precipitation 03/19/2021 04:52 AM 03/19/2021 05:19 AM 0.000 0.000 0.000 0.000 0.000 Not Reported Not Reported
04/08/2021 12:03 PM 50.72 39.38 22.10 59.36 31.64 31.0 Not Reported 5.59 N 10.07 NE 10.07 N No 0.000 No Precipitation 03/19/2021 04:52 AM 03/19/2021 05:19 AM 0.000 0.000 0.000 0.000 0.000 Not Reported Not Reported
04/08/2021 12:13 PM 50.90 39.56 22.10 59.36 31.64 31.0 Not Reported 6.93 NE 7.61 N 10.74 NE No 0.000 No Precipitation 03/19/2021 04:52 AM 03/19/2021 05:19 AM 0.000 0.000 0.000 0.000 0.000 Not Reported Not Reported
04/08/2021 12:18 PM 51.08 39.92 23.36 59.36 31.64 33.0 Not Reported 7.38 NE 7.61 NE 10.74 NE No 0.000 No Precipitation 03/19/2021 04:52 AM 03/19/2021 05:19 AM 0.000 0.000 0.000 0.000 0.000 Not Reported Not Reported
04/08/2021 12:23 PM 51.62 40.10 22.46 59.36 31.64 31.0 Not Reported 6.26 NE 8.95 NE 10.29 N No 0.000 No Precipitation 03/19/2021 04:52 AM 03/19/2021 05:19 AM 0.000 0.000 0.000 0.000 0.000 Not Reported Not Reported
04/08/2021 12:28 PM 51.08 39.74 22.64 59.36 31.64 32.0 Not Reported 6.93 NE 14.09 NE 14.09 NE No 0.000 No Precipitation 03/19/2021 04:52 AM 03/19/2021 05:19 AM 0.000 0.000 0.000 0.000 0.000 Not Reported Not Reported
04/08/2021 12:33 PM 50.90 39.74 23.00 59.36 31.64 33.0 Not Reported 7.61 NE 8.28 NE 14.09 NE No 0.000 No Precipitation 03/19/2021 04:52 AM 03/19/2021 05:19 AM 0.000 0.000 0.000 0.000 0.000 Not Reported Not Reported
04/08/2021 12:38 PM 50.72 39.20 20.84 59.36 31.64 30.0 Not Reported 8.05 E 6.71 NE 12.30 NE No 0.000 No Precipitation 03/19/2021 04:52 AM 03/19/2021 05:19 AM 0.000 0.000 0.000 0.000 0.000 Not Reported Not Reported
04/08/2021 12:43 PM 51.44 40.10 23.54 59.36 31.64 33.0 Not Reported 6.71 NE 6.26 E 10.74 E No 0.000 No Precipitation 03/19/2021 04:52 AM 03/19/2021 05:19 AM 0.000 0.000 0.000 0.000 0.000 Not Reported Not Reported
04/08/2021 12:48 PM 51.08 39.38 20.66 59.36 31.64 29.0 Not Reported 10.51 NE 10.07 NE 13.20 NE No 0.000 No Precipitation 03/19/2021 04:52 AM 03/19/2021 05:19 AM 0.000 0.000 0.000 0.000 0.000 Not Reported Not Reported
04/08/2021 12:53 PM 50.90 39.56 22.10 59.36 31.64 31.0 Not Reported 8.95 NE 9.17 N 14.76 N No 0.000 No Precipitation 03/19/2021 04:52 AM 03/19/2021 05:19 AM 0.000 0.000 0.000 0.000 0.000 Not Reported Not Reported
04/08/2021 01:03 PM 51.98 40.10 21.74 59.36 31.64 29.0 Not Reported 7.61 E 6.49 NE 10.74 NE No 0.000 No Precipitation 03/19/2021 04:52 AM 03/19/2021 05:19 AM 0.000 0.000 0.000 0.000 0.000 Not Reported Not Reported
04/08/2021 01:08 PM 52.34 40.46 22.64 59.36 31.64 30.0 Not Reported 8.72 NE 7.83 NE 13.42 NE No 0.000 No Precipitation 03/19/2021 04:52 AM 03/19/2021 05:19 AM 0.000 0.000 0.000 0.000 0.000 Not Reported Not Reported
04/08/2021 01:13 PM 51.98 40.28 22.64 59.36 31.64 31.0 Not Reported 7.38 NE 9.62 N 14.32 NE No 0.000 No Precipitation 03/19/2021 04:52 AM 03/19/2021 05:19 AM 0.000 0.000 0.000 0.000 0.000 Not Reported Not Reported
04/08/2021 01:18 PM 52.88 40.82 23.00 59.36 31.64 30.0 Not Reported 6.04 NE 5.14 NE 14.32 NE No 0.000 No Precipitation 03/19/2021 04:52 AM 03/19/2021 05:19 AM 0.000 0.000 0.000 0.000 0.000 Not Reported Not Reported
04/08/2021 01:23 PM 53.42 41.00 22.10 59.36 31.64 29.0 Not Reported 6.26 NE 4.70 NE 9.40 NE No 0.000 No Precipitation 03/19/2021 04:52 AM 03/19/2021 05:19 AM 0.000 0.000 0.000 0.000 0.000 Not Reported Not Reported
04/08/2021 01:28 PM 53.78 40.82 21.20 59.36 31.64 27.0 Not Reported 8.05 NE 4.25 NE 10.07 N No 0.000 No Precipitation 03/19/2021 04:52 AM 03/19/2021 05:19 AM 0.000 0.000 0.000 0.000 0.000 Not Reported Not Reported
04/08/2021 01:33 PM 53.60 40.28 19.04 59.36 31.64 25.0 Not Reported 8.50 NE 8.28 NE 10.51 NE No 0.000 No Precipitation 03/19/2021 04:52 AM 03/19/2021 05:19 AM 0.000 0.000 0.000 0.000 0.000 Not Reported Not Reported
04/08/2021 01:38 PM 52.88 39.56 17.96 59.36 31.64 24.0 Not Reported 7.83 N 9.40 NE 10.51 NE No 0.000 No Precipitation 03/19/2021 04:52 AM 03/19/2021 05:19 AM 0.000 0.000 0.000 0.000 0.000 Not Reported Not Reported
04/08/2021 01:43 PM 52.52 39.74 19.40 59.36 31.64 26.0 Not Reported 8.05 NE 4.47 NE 13.65 E No 0.000 No Precipitation 03/19/2021 04:52 AM 03/19/2021 05:19 AM 0.000 0.000 0.000 0.000 0.000 Not Reported Not Reported
04/08/2021 01:48 PM 53.24 39.20 14.72 59.36 31.64 21.0 Not Reported 8.72 NE 10.07 NE 13.65 E No 0.000 No Precipitation 03/19/2021 04:52 AM 03/19/2021 05:19 AM 0.000 0.000 0.000 0.000 0.000 Not Reported Not Reported
04/08/2021 01:53 PM 54.68 40.10 15.26 59.36 31.64 20.0 Not Reported 5.82 NE 7.38 NE 12.75 NE No 0.000 No Precipitation 03/19/2021 04:52 AM 03/19/2021 05:19 AM 0.000 0.000 0.000 0.000 0.000 Not Reported Not Reported
04/08/2021 01:58 PM 54.32 40.64 19.04 59.36 31.64 24.0 Not Reported 8.05 NE 7.38 NE 9.62 E No 0.000 No Precipitation 03/19/2021 04:52 AM 03/19/2021 05:19 AM 0.000 0.000 0.000 0.000 0.000 Not Reported Not Reported
04/08/2021 02:03 PM 55.04 41.00 18.32 59.36 31.64 23.0 Not Reported 4.92 N 3.58 NE 10.51 NE No 0.000 No Precipitation 03/19/2021 04:52 AM 03/19/2021 05:19 AM 0.000 0.000 0.000 0.000 0.000 Not Reported Not Reported
04/08/2021 02:08 PM 55.04 40.82 17.96 59.36 31.64 22.0 Not Reported 7.16 NE 5.82 N 12.30 NE No 0.000 No Precipitation 03/19/2021 04:52 AM 03/19/2021 05:19 AM 0.000 0.000 0.000 0.000 0.000 Not Reported Not Reported
04/08/2021 02:13 PM 54.86 41.00 19.22 59.36 31.64 24.0 Not Reported 7.61 NE 6.26 N 12.30 NE No 0.000 No Precipitation 03/19/2021 04:52 AM 03/19/2021 05:19 AM 0.000 0.000 0.000 0.000 0.000 Not Reported Not Reported
04/08/2021 02:18 PM 53.78 39.56 14.54 59.36 31.64 20.0 Not Reported 11.41 NE 11.18 NE 12.75 NE No 0.000 No Precipitation 03/19/2021 04:52 AM 03/19/2021 05:19 AM 0.000 0.000 0.000 0.000 0.000 Not Reported Not Reported
04/08/2021 02:23 PM 53.96 39.02 10.58 59.36 31.64 17.0 Not Reported 7.83 NE 6.49 NE 15.21 NE No 0.000 No Precipitation 03/19/2021 04:52 AM 03/19/2021 05:19 AM 0.000 0.000 0.000 0.000 0.000 Not Reported Not Reported
04/08/2021 02:28 PM 55.04 40.28 15.26 59.36 31.64 20.0 Not Reported 7.38 NE 6.04 NE 15.21 NE No 0.000 No Precipitation 03/19/2021 04:52 AM 03/19/2021 05:19 AM 0.000 0.000 0.000 0.000 0.000 Not Reported Not Reported
04/08/2021 02:33 PM 55.40 40.46 15.08 59.36 31.64 19.0 Not Reported 6.04 NE 6.26 E 8.95 NE No 0.000 No Precipitation 03/19/2021 04:52 AM 03/19/2021 05:19 AM 0.000 0.000 0.000 0.000 0.000 Not Reported Not Reported
04/08/2021 02:38 PM 55.94 40.82 15.62 59.36 31.64 20.0 Not Reported 7.38 NE 5.82 NE 10.29 NE No 0.000 No Precipitation 03/19/2021 04:52 AM 03/19/2021 05:19 AM 0.000 0.000 0.000 0.000 0.000 Not Reported Not Reported
04/08/2021 02:43 PM 54.86 40.46 16.34 59.36 31.64 21.0 Not Reported 9.17 E 5.37 E 10.29 NE No 0.000 No Precipitation 03/19/2021 04:52 AM 03/19/2021 05:19 AM 0.000 0.000 0.000 0.000 0.000 Not Reported Not Reported
04/08/2021 02:48 PM 55.94 40.28 12.56 59.36 31.64 17.0 Not Reported 7.61 NE 7.16 NE 10.29 NE No 0.000 No Precipitation 03/19/2021 04:52 AM 03/19/2021 05:19 AM 0.000 0.000 0.000 0.000 0.000 Not Reported Not Reported
04/08/2021 02:53 PM 55.94 40.28 12.56 59.36 31.64 17.0 Not Reported 5.59 NE 6.26 N 12.08 NE No 0.000 No Precipitation 03/19/2021 04:52 AM 03/19/2021 05:19 AM 0.000 0.000 0.000 0.000 0.000 Not Reported Not Reported
04/08/2021 02:58 PM 55.76 40.28 13.28 59.36 31.64 18.0 Not Reported 5.37 NE 8.95 N 12.08 NE No 0.000 No Precipitation 03/19/2021 04:52 AM 03/19/2021 05:19 AM 0.000 0.000 0.000 0.000 0.000 Not Reported Not Reported
04/08/2021 03:03 PM 57.20 40.82 11.84 59.36 31.64 16.0 Not Reported 5.14 NE 6.93 E 9.62 NE No 0.000 No Precipitation 03/19/2021 04:52 AM 03/19/2021 05:19 AM 0.000 0.000 0.000 0.000 0.000 Not Reported Not Reported
04/08/2021 03:08 PM 57.02 39.74 4.82 59.36 31.64 11.0 Not Reported 6.49 NE 6.71 NE 7.83 NE No 0.000 No Precipitation 03/19/2021 04:52 AM 03/19/2021 05:19 AM 0.000 0.000 0.000 0.000 0.000 Not Reported Not Reported
04/08/2021 03:13 PM 56.30 40.10 10.40 59.36 31.64 15.0 Not Reported 7.16 NE 3.36 N 7.83 NE No 0.000 No Precipitation 03/19/2021 04:52 AM 03/19/2021 05:19 AM 0.000 0.000 0.000 0.000 0.000 Not Reported Not Reported
04/08/2021 03:18 PM 55.22 39.20 7.34 59.36 31.64 14.0 Not Reported 6.93 E 10.07 NE 10.07 NE No 0.000 No Precipitation 03/19/2021 04:52 AM 03/19/2021 05:19 AM 0.000 0.000 0.000 0.000 0.000 Not Reported Not Reported
04/08/2021 03:23 PM 55.04 39.74 9.68 59.36 31.64 16.0 Not Reported 8.50 E 4.70 E 11.86 NE No 0.000 No Precipitation 03/19/2021 04:52 AM 03/19/2021 05:19 AM 0.000 0.000 0.000 0.000 0.000 Not Reported Not Reported
04/08/2021 03:28 PM 55.94 40.46 13.28 59.36 31.64 18.0 Not Reported 7.61 NE 6.93 E 11.86 NE No 0.000 No Precipitation 03/19/2021 04:52 AM 03/19/2021 05:19 AM 0.000 0.000 0.000 0.000 0.000 Not Reported Not Reported
04/08/2021 03:33 PM 56.84 41.00 13.82 59.36 31.64 17.0 Not Reported 6.93 NE 3.58 E 10.29 NE No 0.000 No Precipitation 03/19/2021 04:52 AM 03/19/2021 05:19 AM 0.000 0.000 0.000 0.000 0.000 Not Reported Not Reported
04/08/2021 03:38 PM 57.92 42.26 17.96 59.36 31.64 20.0 Not Reported 3.58 NE 6.04 NE 8.95 NE No 0.000 No Precipitation 03/19/2021 04:52 AM 03/19/2021 05:19 AM 0.000 0.000 0.000 0.000 0.000 Not Reported Not Reported
04/08/2021 03:43 PM 57.02 41.36 15.26 59.36 31.64 19.0 Not Reported 7.16 E 4.92 NE 9.17 NE No 0.000 No Precipitation 03/19/2021 04:52 AM 03/19/2021 05:19 AM 0.000 0.000 0.000 0.000 0.000 Not Reported Not Reported
04/08/2021 03:53 PM 55.94 40.82 15.26 59.00 31.64 19.0 Not Reported 8.95 NE 4.03 E 10.96 NE No 0.000 No Precipitation 03/19/2021 04:52 AM 03/19/2021 05:19 AM 0.000 0.000 0.000 0.000 0.000 Not Reported Not Reported
04/08/2021 03:58 PM 56.48 41.72 17.96 59.00 31.64 21.0 Not Reported 6.04 NE 7.61 NE 10.74 E No 0.000 No Precipitation 03/19/2021 04:52 AM 03/19/2021 05:19 AM 0.000 0.000 0.000 0.000 0.000 Not Reported Not Reported
04/08/2021 04:03 PM 56.66 41.54 16.16 59.00 31.64 19.0 Not Reported 5.59 E 4.25 E 9.40 E No 0.000 No Precipitation 03/19/2021 04:52 AM 03/19/2021 05:19 AM 0.000 0.000 0.000 0.000 0.000 Not Reported Not Reported
04/08/2021 04:08 PM 57.38 41.72 16.70 58.82 31.64 19.0 Not Reported 7.38 E 5.59 W 8.72 E No 0.000 No Precipitation 03/19/2021 04:52 AM 03/19/2021 05:19 AM 0.000 0.000 0.000 0.000 0.000 Not Reported Not Reported
04/08/2021 04:13 PM 57.20 41.72 17.24 58.82 31.64 20.0 Not Reported 6.49 NE 7.61 NE 8.72 NE No 0.000 No Precipitation 03/19/2021 04:52 AM 03/19/2021 05:19 AM 0.000 0.000 0.000 0.000 0.000 Not Reported Not Reported
04/08/2021 04:18 PM 57.20 41.36 14.90 58.82 31.64 18.0 Not Reported 6.71 NE 5.82 E 8.72 NE No 0.000 No Precipitation 03/19/2021 04:52 AM 03/19/2021 05:19 AM 0.000 0.000 0.000 0.000 0.000 Not Reported Not Reported
04/08/2021 04:23 PM 57.20 40.82 12.38 58.82 31.64 16.0 Not Reported 5.82 NE 7.16 NE 8.05 NE No 0.000 No Precipitation 03/19/2021 04:52 AM 03/19/2021 05:19 AM 0.000 0.000 0.000 0.000 0.000 Not Reported Not Reported
04/08/2021 04:28 PM 57.02 41.54 16.34 58.82 31.64 19.0 Not Reported 7.16 NE 9.40 NE 10.29 E No 0.000 No Precipitation 03/19/2021 04:52 AM 03/19/2021 05:19 AM 0.000 0.000 0.000 0.000 0.000 Not Reported Not Reported
04/08/2021 04:33 PM 56.30 41.00 15.08 58.82 31.64 19.0 Not Reported 7.61 E 6.26 E 10.29 E No 0.000 No Precipitation 03/19/2021 04:52 AM 03/19/2021 05:19 AM 0.000 0.000 0.000 0.000 0.000 Not Reported Not Reported
04/08/2021 04:43 PM 56.84 41.54 16.34 58.64 31.64 19.0 Not Reported 9.62 NE 9.17 NE 11.18 NE No 0.000 No Precipitation 03/19/2021 04:52 AM 03/19/2021 05:19 AM 0.000 0.000 0.000 0.000 0.000 Not Reported Not Reported
04/08/2021 04:48 PM 57.38 41.54 15.62 58.64 31.64 19.0 Not Reported 6.49 E 6.93 N 10.74 NE No 0.000 No Precipitation 03/19/2021 04:52 AM 03/19/2021 05:19 AM 0.000 0.000 0.000 0.000 0.000 Not Reported Not Reported
04/08/2021 04:53 PM 56.66 41.90 18.50 58.64 31.64 22.0 Not Reported 7.38 NE 4.92 NE 9.40 NE No 0.000 No Precipitation 03/19/2021 04:52 AM 03/19/2021 05:19 AM 0.000 0.000 0.000 0.000 0.000 Not Reported Not Reported
04/08/2021 04:58 PM 56.12 41.54 18.86 58.28 31.64 22.0 Not Reported 8.28 E 8.28 NE 9.40 E No 0.000 No Precipitation 03/19/2021 04:52 AM 03/19/2021 05:19 AM 0.000 0.000 0.000 0.000 0.000 Not Reported Not Reported
04/08/2021 05:03 PM 57.74 42.62 19.58 58.28 31.64 22.0 Not Reported 5.59 NE 5.82 NE 9.40 E No 0.000 No Precipitation 03/19/2021 04:52 AM 03/19/2021 05:19 AM 0.000 0.000 0.000 0.000 0.000 Not Reported Not Reported
04/08/2021 05:08 PM 57.38 41.90 17.60 58.28 31.64 20.0 Not Reported 7.16 NE 8.72 E 8.72 E No 0.000 No Precipitation 03/19/2021 04:52 AM 03/19/2021 05:19 AM 0.000 0.000 0.000 0.000 0.000 Not Reported Not Reported
04/08/2021 05:13 PM 57.38 41.72 16.52 58.28 31.64 19.0 Not Reported 5.14 NE 4.92 NE 10.07 NE No 0.000 No Precipitation 03/19/2021 04:52 AM 03/19/2021 05:19 AM 0.000 0.000 0.000 0.000 0.000 Not Reported Not Reported
04/08/2021 05:18 PM 57.92 42.08 16.52 58.28 31.64 19.0 Not Reported 5.14 NE 5.82 N 10.07 NE No 0.000 No Precipitation 03/19/2021 04:52 AM 03/19/2021 05:19 AM 0.000 0.000 0.000 0.000 0.000 Not Reported Not Reported
04/08/2021 05:23 PM 57.38 41.36 13.82 58.28 31.64 17.0 Not Reported 5.59 NE 7.61 E 9.40 NE No 0.000 No Precipitation 03/19/2021 04:52 AM 03/19/2021 05:19 AM 0.000 0.000 0.000 0.000 0.000 Not Reported Not Reported
04/08/2021 05:28 PM 56.66 41.36 15.98 58.28 31.64 19.0 Not Reported 7.16 E 5.14 NE 9.40 NE No 0.000 No Precipitation 03/19/2021 04:52 AM 03/19/2021 05:19 AM 0.000 0.000 0.000 0.000 0.000 Not Reported Not Reported
04/08/2021 05:38 PM 56.66 41.54 17.24 58.28 31.64 20.0 Not Reported 4.70 E 6.71 NE 8.50 E No 0.000 No Precipitation 03/19/2021 04:52 AM 03/19/2021 05:19 AM 0.000 0.000 0.000 0.000 0.000 Not Reported Not Reported
04/08/2021 05:43 PM 57.20 42.44 20.48 58.28 31.64 23.0 Not Reported 4.70 NE 3.80 N 7.61 E No 0.000 No Precipitation 03/19/2021 04:52 AM 03/19/2021 05:19 AM 0.000 0.000 0.000 0.000 0.000 Not Reported Not Reported
04/08/2021 05:48 PM 56.84 41.90 18.68 58.28 31.64 22.0 Not Reported 5.59 NE 9.40 E 9.40 E No 0.000 No Precipitation 03/19/2021 04:52 AM 03/19/2021 05:19 AM 0.000 0.000 0.000 0.000 0.000 Not Reported Not Reported
04/08/2021 05:53 PM 56.66 41.90 19.04 58.28 31.64 22.0 Not Reported 6.49 NE 8.95 NE 9.40 E No 0.000 No Precipitation 03/19/2021 04:52 AM 03/19/2021 05:19 AM 0.000 0.000 0.000 0.000 0.000 Not Reported Not Reported
04/08/2021 05:58 PM 56.12 41.90 20.12 58.28 31.64 24.0 Not Reported 8.05 NE 6.71 NE 9.17 NE No 0.000 No Precipitation 03/19/2021 04:52 AM 03/19/2021 05:19 AM 0.000 0.000 0.000 0.000 0.000 Not Reported Not Reported
04/08/2021 06:03 PM 56.48 42.62 22.82 58.28 31.64 26.0 Not Reported 5.82 E 2.91 NE 8.50 NE No 0.000 No Precipitation 03/19/2021 04:52 AM 03/19/2021 05:19 AM 0.000 0.000 0.000 0.000 0.000 Not Reported Not Reported
04/08/2021 06:08 PM 56.12 41.90 21.02 58.28 31.64 24.0 Not Reported 5.59 NE 6.26 E 7.38 NE No 0.000 No Precipitation 03/19/2021 04:52 AM 03/19/2021 05:19 AM 0.000 0.000 0.000 0.000 0.000 Not Reported Not Reported
04/08/2021 06:13 PM 55.58 42.08 21.74 58.28 31.64 26.0 Not Reported 6.04 NE 7.16 NE 9.62 NE No 0.000 No Precipitation 03/19/2021 04:52 AM 03/19/2021 05:19 AM 0.000 0.000 0.000 0.000 0.000 Not Reported Not Reported
04/08/2021 06:18 PM 55.58 42.08 22.10 58.28 31.64 26.0 Not Reported 5.37 NE 6.71 E 9.62 NE No 0.000 No Precipitation 03/19/2021 04:52 AM 03/19/2021 05:19 AM 0.000 0.000 0.000 0.000 0.000 Not Reported Not Reported
04/08/2021 06:23 PM 55.22 41.72 21.20 58.28 31.64 25.0 Not Reported 5.14 NE 7.16 NE 8.28 E No 0.000 No Precipitation 03/19/2021 04:52 AM 03/19/2021 05:19 AM 0.000 0.000 0.000 0.000 0.000 Not Reported Not Reported
04/08/2021 06:28 PM 55.22 41.72 21.38 58.28 31.64 26.0 Not Reported 7.16 NE 6.26 NE 9.62 NE No 0.000 No Precipitation 03/19/2021 04:52 AM 03/19/2021 05:19 AM 0.000 0.000 0.000 0.000 0.000 Not Reported Not Reported
04/08/2021 06:33 PM 55.22 42.08 22.64 58.28 31.64 27.0 Not Reported 4.47 NE 4.70 E 9.62 NE No 0.000 No Precipitation 03/19/2021 04:52 AM 03/19/2021 05:19 AM 0.000 0.000 0.000 0.000 0.000 Not Reported Not Reported
04/08/2021 06:38 PM 55.22 42.44 24.08 58.28 31.64 29.0 Not Reported 3.80 NE 2.91 NE 8.50 NE No 0.000 No Precipitation 03/19/2021 04:52 AM 03/19/2021 05:19 AM 0.000 0.000 0.000 0.000 0.000 Not Reported Not Reported
04/08/2021 06:43 PM 54.68 41.90 23.90 58.28 31.64 29.0 Not Reported 6.71 NE 4.47 NE 8.95 NE No 0.000 No Precipitation 03/19/2021 04:52 AM 03/19/2021 05:19 AM 0.000 0.000 0.000 0.000 0.000 Not Reported Not Reported
04/08/2021 06:48 PM 54.14 41.54 23.36 58.28 31.64 29.0 Not Reported 5.59 NE 4.92 NE 8.95 NE No 0.000 No Precipitation 03/19/2021 04:52 AM 03/19/2021 05:19 AM 0.000 0.000 0.000 0.000 0.000 Not Reported Not Reported
04/08/2021 06:53 PM 53.60 41.72 24.44 58.28 31.64 31.0 Not Reported 3.13 NE 3.80 NE 8.50 NE No 0.000 No Precipitation 03/19/2021 04:52 AM 03/19/2021 05:19 AM 0.000 0.000 0.000 0.000 0.000 Not Reported Not Reported
04/08/2021 06:58 PM 53.24 41.54 24.80 58.28 31.64 32.0 Not Reported 4.25 NE 5.37 NE 7.38 NE No 0.000 No Precipitation 03/19/2021 04:52 AM 03/19/2021 05:19 AM 0.000 0.000 0.000 0.000 0.000 Not Reported Not Reported
04/08/2021 07:03 PM 51.98 41.00 24.98 58.28 31.64 34.0 Not Reported 3.13 NE 6.71 E 7.61 E No 0.000 No Precipitation 03/19/2021 04:52 AM 03/19/2021 05:19 AM 0.000 0.000 0.000 0.000 0.000 Not Reported Not Reported
04/08/2021 07:08 PM 51.08 40.64 26.06 58.28 31.64 37.0 Not Reported 3.80 NE 3.13 N 7.61 E No 0.000 No Precipitation 03/19/2021 04:52 AM 03/19/2021 05:19 AM 0.000 0.000 0.000 0.000 0.000 Not Reported Not Reported
04/08/2021 07:13 PM 50.54 40.28 25.88 58.28 31.64 37.0 Not Reported 4.70 NE 4.25 N 5.37 NE No 0.000 No Precipitation 03/19/2021 04:52 AM 03/19/2021 05:19 AM 0.000 0.000 0.000 0.000 0.000 Not Reported Not Reported
04/08/2021 07:18 PM 49.64 40.28 27.32 58.28 31.64 41.0 Not Reported 4.03 NE 3.58 NE 5.37 NE No 0.000 No Precipitation 03/19/2021 04:52 AM 03/19/2021 05:19 AM 0.000 0.000 0.000 0.000 0.000 Not Reported Not Reported
04/08/2021 07:23 PM 49.28 39.74 26.06 58.28 31.64 39.0 Not Reported 4.25 N 4.25 N 5.37 E No 0.000 No Precipitation 03/19/2021 04:52 AM 03/19/2021 05:19 AM 0.000 0.000 0.000 0.000 0.000 Not Reported Not Reported
04/08/2021 07:28 PM 48.56 39.38 26.60 58.28 31.64 41.0 Not Reported 4.47 N 4.03 NE 5.37 E No 0.000 No Precipitation 03/19/2021 04:52 AM 03/19/2021 05:19 AM 0.000 0.000 0.000 0.000 0.000 Not Reported Not Reported
04/08/2021 07:33 PM 48.02 39.20 26.60 58.28 31.64 42.0 Not Reported 4.25 N 4.03 NE 4.92 N No 0.000 No Precipitation 03/19/2021 04:52 AM 03/19/2021 05:19 AM 0.000 0.000 0.000 0.000 0.000 Not Reported Not Reported
04/08/2021 07:38 PM 47.30 38.84 26.42 58.28 31.64 43.0 Not Reported 4.47 NE 4.03 NE 5.37 N No 0.000 No Precipitation 03/19/2021 04:52 AM 03/19/2021 05:19 AM 0.000 0.000 0.000 0.000 0.000 Not Reported Not Reported
04/08/2021 07:43 PM 47.12 38.84 27.32 58.28 31.64 45.0 Not Reported 4.92 NE 4.47 NE 6.26 NE No 0.000 No Precipitation 03/19/2021 04:52 AM 03/19/2021 05:19 AM 0.000 0.000 0.000 0.000 0.000 Not Reported Not Reported
04/08/2021 07:48 PM 46.94 38.48 25.88 58.28 31.64 43.0 Not Reported 4.25 NE 5.82 NE 6.26 NE No 0.000 No Precipitation 03/19/2021 04:52 AM 03/19/2021 05:19 AM 0.000 0.000 0.000 0.000 0.000 Not Reported Not Reported
04/08/2021 07:53 PM 46.76 38.30 26.06 58.28 31.64 43.0 Not Reported 4.70 NE 4.92 NE 6.49 NE No 0.000 No Precipitation 03/19/2021 04:52 AM 03/19/2021 05:19 AM 0.000 0.000 0.000 0.000 0.000 Not Reported Not Reported
04/08/2021 07:58 PM 46.40 38.12 25.88 58.28 31.64 44.0 Not Reported 4.70 NE 4.47 N 6.49 NE No 0.000 No Precipitation 03/19/2021 04:52 AM 03/19/2021 05:19 AM 0.000 0.000 0.000 0.000 0.000 Not Reported Not Reported
04/08/2021 08:03 PM 45.86 37.94 25.88 58.28 31.64 44.0 Not Reported 4.03 NE 5.37 NE 5.37 NE No 0.000 No Precipitation 03/19/2021 04:52 AM 03/19/2021 05:19 AM 0.000 0.000 0.000 0.000 0.000 Not Reported Not Reported
04/08/2021 08:08 PM 45.86 37.94 25.88 58.28 31.64 44.0 Not Reported 4.92 NE 4.25 NE 5.82 N No 0.000 No Precipitation 03/19/2021 04:52 AM 03/19/2021 05:19 AM 0.000 0.000 0.000 0.000 0.000 Not Reported Not Reported
04/08/2021 08:13 PM 45.68 37.58 25.52 58.28 31.64 44.0 Not Reported 4.92 NE 4.47 N 5.82 N No 0.000 No Precipitation 03/19/2021 04:52 AM 03/19/2021 05:19 AM 0.000 0.000 0.000 0.000 0.000 Not Reported Not Reported
04/08/2021 08:18 PM 45.50 37.58 25.70 58.28 31.64 45.0 Not Reported 4.47 NE 4.47 N 5.82 NE No 0.000 No Precipitation 03/19/2021 04:52 AM 03/19/2021 05:19 AM 0.000 0.000 0.000 0.000 0.000 Not Reported Not Reported
04/08/2021 08:23 PM 45.32 37.40 25.16 58.28 31.64 44.0 Not Reported 4.70 NE 4.25 NE 5.82 NE No 0.000 No Precipitation 03/19/2021 04:52 AM 03/19/2021 05:19 AM 0.000 0.000 0.000 0.000 0.000 Not Reported Not Reported
04/08/2021 08:28 PM 45.32 37.22 24.98 58.28 31.64 44.0 Not Reported 4.47 NE 4.47 NE 5.59 N No 0.000 No Precipitation 03/19/2021 04:52 AM 03/19/2021 05:19 AM 0.000 0.000 0.000 0.000 0.000 Not Reported Not Reported
04/08/2021 08:33 PM 45.32 37.22 24.98 58.28 31.64 44.0 Not Reported 3.13 N 3.36 NE 5.59 NE No 0.000 No Precipitation 03/19/2021 04:52 AM 03/19/2021 05:19 AM 0.000 0.000 0.000 0.000 0.000 Not Reported Not Reported
04/08/2021 08:38 PM 44.78 36.86 24.62 58.28 31.64 44.0 Not Reported 2.46 NE 3.58 NE 5.59 NE No 0.000 No Precipitation 03/19/2021 04:52 AM 03/19/2021 05:19 AM 0.000 0.000 0.000 0.000 0.000 Not Reported Not Reported
04/08/2021 08:43 PM 43.52 36.86 27.14 58.28 31.64 51.0 Not Reported 2.46 NE 2.24 NE 5.59 NE No 0.000 No Precipitation 03/19/2021 04:52 AM 03/19/2021 05:19 AM 0.000 0.000 0.000 0.000 0.000 Not Reported Not Reported
04/08/2021 08:48 PM 42.98 36.68 26.96 58.28 31.64 53.0 Not Reported 1.79 NE 0.89 N 3.80 N No 0.000 No Precipitation 03/19/2021 04:52 AM 03/19/2021 05:19 AM 0.000 0.000 0.000 0.000 0.000 Not Reported Not Reported
04/08/2021 08:53 PM 42.62 35.96 25.70 58.28 31.64 50.0 Not Reported 0.00 NW 1.57 NW 3.80 N No 0.000 No Precipitation 03/19/2021 04:52 AM 03/19/2021 05:19 AM 0.000 0.000 0.000 0.000 0.000 Not Reported Not Reported
04/08/2021 08:58 PM 41.72 36.14 27.86 58.28 31.64 57.0 Not Reported 1.79 NE 3.13 E 3.13 E No 0.000 No Precipitation 03/19/2021 04:52 AM 03/19/2021 05:19 AM 0.000 0.000 0.000 0.000 0.000 Not Reported Not Reported
04/08/2021 09:08 PM 39.74 34.88 27.50 58.28 31.64 60.0 Not Reported 1.57 NE 1.34 NE 3.13 NE No 0.000 No Precipitation 03/19/2021 04:52 AM 03/19/2021 05:19 AM 0.000 0.000 0.000 0.000 0.000 Not Reported Not Reported
04/08/2021 09:13 PM 39.20 34.34 26.96 58.28 31.64 60.0 Not Reported 2.01 NE 2.46 NE 2.46 NE No 0.000 No Precipitation 03/19/2021 04:52 AM 03/19/2021 05:19 AM 0.000 0.000 0.000 0.000 0.000 Not Reported Not Reported
04/08/2021 09:18 PM 39.20 34.34 27.14 58.28 31.64 61.0 Not Reported 1.79 NE 1.79 N 2.46 NE No 0.000 No Precipitation 03/19/2021 04:52 AM 03/19/2021 05:19 AM 0.000 0.000 0.000 0.000 0.000 Not Reported Not Reported
04/08/2021 09:23 PM 38.48 33.98 26.78 58.28 31.64 62.0 Not Reported 1.34 NE 2.01 E 2.46 NE No 0.000 No Precipitation 03/19/2021 04:52 AM 03/19/2021 05:19 AM 0.000 0.000 0.000 0.000 0.000 Not Reported Not Reported
04/08/2021 09:28 PM 37.76 33.26 25.88 58.28 31.64 61.0 Not Reported 2.46 NE 2.24 E 2.68 NE No 0.000 No Precipitation 03/19/2021 04:52 AM 03/19/2021 05:19 AM 0.000 0.000 0.000 0.000 0.000 Not Reported Not Reported
04/08/2021 09:33 PM 37.40 32.90 25.70 58.28 31.64 61.0 Not Reported 2.24 NE 2.24 NE 2.68 NE No 0.000 No Precipitation 03/19/2021 04:52 AM 03/19/2021 05:19 AM 0.000 0.000 0.000 0.000 0.000 Not Reported Not Reported
04/08/2021 09:38 PM 36.86 32.36 24.98 58.28 31.64 61.0 Not Reported 1.57 E 0.89 E 2.46 NE No 0.000 No Precipitation 03/19/2021 04:52 AM 03/19/2021 05:19 AM 0.000 0.000 0.000 0.000 0.000 Not Reported Not Reported
04/08/2021 09:43 PM 36.14 32.00 24.80 58.28 31.64 62.0 Not Reported 1.57 E 1.57 NE 2.46 NE No 0.000 No Precipitation 03/19/2021 04:52 AM 03/19/2021 05:19 AM 0.000 0.000 0.000 0.000 0.000 Not Reported Not Reported
04/08/2021 09:48 PM 35.78 31.64 24.08 58.28 31.64 61.0 Not Reported 2.01 E 1.57 NE 2.24 E No 0.000 No Precipitation 03/19/2021 04:52 AM 03/19/2021 05:19 AM 0.000 0.000 0.000 0.000 0.000 Not Reported Not Reported
04/08/2021 09:53 PM 35.42 31.28 23.90 58.28 31.64 62.0 Not Reported 1.79 E 1.79 E 2.24 E No 0.000 No Precipitation 03/19/2021 04:52 AM 03/19/2021 05:19 AM 0.000 0.000 0.000 0.000 0.000 Not Reported Not Reported
04/08/2021 09:58 PM 35.24 31.46 24.44 58.28 31.64 63.0 Not Reported 1.57 NE 1.79 NE 2.24 E No 0.000 No Precipitation 03/19/2021 04:52 AM 03/19/2021 05:19 AM 0.000 0.000 0.000 0.000 0.000 Not Reported Not Reported
04/08/2021 10:03 PM 34.88 31.28 24.08 58.28 31.64 63.0 Not Reported 2.46 NE 1.34 NE 2.68 NE No 0.000 No Precipitation 03/19/2021 04:52 AM 03/19/2021 05:19 AM 0.000 0.000 0.000 0.000 0.000 Not Reported Not Reported
04/08/2021 10:08 PM 34.70 31.10 24.44 58.28 31.64 65.0 Not Reported 1.79 NE 1.79 NE 2.68 NE No 0.000 No Precipitation 03/19/2021 04:52 AM 03/19/2021 05:19 AM 0.000 0.000 0.000 0.000 0.000 Not Reported Not Reported
04/08/2021 10:13 PM 34.70 31.28 24.98 58.28 31.64 66.0 Not Reported 1.79 E 1.79 E 2.01 E No 0.000 No Precipitation 03/19/2021 04:52 AM 03/19/2021 05:19 AM 0.000 0.000 0.000 0.000 0.000 Not Reported Not Reported
04/08/2021 10:18 PM 34.16 30.92 25.16 58.28 31.64 68.0 Not Reported 1.57 E 1.57 E 2.01 E No 0.000 No Precipitation 03/19/2021 04:52 AM 03/19/2021 05:19 AM 0.000 0.000 0.000 0.000 0.000 Not Reported Not Reported
04/08/2021 10:23 PM 33.98 30.92 24.98 58.28 31.64 68.0 Not Reported 1.57 NE 2.46 NE 2.46 NE No 0.000 No Precipitation 03/19/2021 04:52 AM 03/19/2021 05:19 AM 0.000 0.000 0.000 0.000 0.000 Not Reported Not Reported
04/08/2021 10:28 PM 34.34 31.10 25.34 58.28 31.64 68.0 Not Reported 2.01 NE 3.13 NE 3.36 NE No 0.000 No Precipitation 03/19/2021 04:52 AM 03/19/2021 05:19 AM 0.000 0.000 0.000 0.000 0.000 Not Reported Not Reported
04/08/2021 10:33 PM 34.52 31.28 25.34 58.28 31.64 67.0 Not Reported 2.46 NE 2.46 NE 3.36 NE No 0.000 No Precipitation 03/19/2021 04:52 AM 03/19/2021 05:19 AM 0.000 0.000 0.000 0.000 0.000 Not Reported Not Reported
04/08/2021 10:38 PM 34.52 31.28 25.34 58.28 31.64 68.0 Not Reported 1.57 E 1.34 E 3.13 NE No 0.000 No Precipitation 03/19/2021 04:52 AM 03/19/2021 05:19 AM 0.000 0.000 0.000 0.000 0.000 Not Reported Not Reported
04/08/2021 10:43 PM 34.52 31.28 25.52 58.28 31.64 69.0 Not Reported 1.79 NE 2.24 NE 2.91 NE No 0.000 No Precipitation 03/19/2021 04:52 AM 03/19/2021 05:19 AM 0.000 0.000 0.000 0.000 0.000 Not Reported Not Reported
04/08/2021 10:53 PM 35.06 31.64 25.34 58.28 31.64 66.0 Not Reported 2.01 NE 2.01 N 2.91 NE No 0.000 No Precipitation 03/19/2021 04:52 AM 03/19/2021 05:19 AM 0.000 0.000 0.000 0.000 0.000 Not Reported Not Reported
04/08/2021 10:58 PM 34.70 31.46 25.88 58.28 31.64 69.0 Not Reported 2.68 NE 3.36 NE 3.36 NE No 0.000 No Precipitation 03/19/2021 04:52 AM 03/19/2021 05:19 AM 0.000 0.000 0.000 0.000 0.000 Not Reported Not Reported
04/08/2021 11:03 PM 34.16 31.10 25.70 58.28 31.64 70.0 Not Reported 3.36 NE 2.91 NE 3.80 NE No 0.000 No Precipitation 03/19/2021 04:52 AM 03/19/2021 05:19 AM 0.000 0.000 0.000 0.000 0.000 Not Reported Not Reported
04/08/2021 11:08 PM 34.34 31.28 25.70 58.28 31.64 69.0 Not Reported 2.46 NE 2.01 NE 3.80 NE No 0.000 No Precipitation 03/19/2021 04:52 AM 03/19/2021 05:19 AM 0.000 0.000 0.000 0.000 0.000 Not Reported Not Reported
04/08/2021 11:13 PM 33.80 30.74 24.98 58.28 31.64 69.0 Not Reported 0.89 E 1.12 E 3.36 E No 0.000 No Precipitation 03/19/2021 04:52 AM 03/19/2021 05:19 AM 0.000 0.000 0.000 0.000 0.000 Not Reported Not Reported
04/08/2021 11:18 PM 33.62 30.56 24.80 58.28 31.64 69.0 Not Reported 0.22 N 0.00 NE 2.46 E No 0.000 No Precipitation 03/19/2021 04:52 AM 03/19/2021 05:19 AM 0.000 0.000 0.000 0.000 0.000 Not Reported Not Reported
04/08/2021 11:23 PM 33.80 30.74 24.80 58.28 31.64 68.0 Not Reported 0.45 E 0.89 E 0.89 E No 0.000 No Precipitation 03/19/2021 04:52 AM 03/19/2021 05:19 AM 0.000 0.000 0.000 0.000 0.000 Not Reported Not Reported
04/08/2021 11:28 PM 33.62 30.38 24.44 58.28 31.64 68.0 Not Reported 0.00 E 0.00 E 1.79 E No 0.000 No Precipitation 03/19/2021 04:52 AM 03/19/2021 05:19 AM 0.000 0.000 0.000 0.000 0.000 Not Reported Not Reported
04/08/2021 11:38 PM 33.44 30.56 24.98 58.28 31.64 70.0 Not Reported 1.12 NE 1.57 E 2.01 E No 0.000 No Precipitation 03/19/2021 04:52 AM 03/19/2021 05:19 AM 0.000 0.000 0.000 0.000 0.000 Not Reported Not Reported
04/08/2021 11:43 PM 33.62 30.56 24.98 58.28 31.64 69.0 Not Reported 0.89 NE 1.12 E 2.01 E No 0.000 No Precipitation 03/19/2021 04:52 AM 03/19/2021 05:19 AM 0.000 0.000 0.000 0.000 0.000 Not Reported Not Reported
04/08/2021 11:48 PM 33.44 30.38 24.62 58.28 31.64 69.0 Not Reported 0.45 E 0.00 E 2.01 E No 0.000 No Precipitation 03/19/2021 04:52 AM 03/19/2021 05:19 AM 0.000 0.000 0.000 0.000 0.000 Not Reported Not Reported
04/08/2021 11:53 PM 33.08 30.20 24.98 58.28 31.64 70.0 Not Reported 1.79 E 1.12 E 2.01 E No 0.000 No Precipitation 03/19/2021 04:52 AM 03/19/2021 05:19 AM 0.000 0.000 0.000 0.000 0.000 Not Reported Not Reported
04/08/2021 11:58 PM 33.08 30.02 24.44 58.28 31.64 69.0 Not Reported 2.01 NE 2.68 NE 2.68 NE No 0.000 No Precipitation 03/19/2021 04:52 AM 03/19/2021 05:19 AM 0.000 0.000 0.000 0.000 0.000 Not Reported Not Reported